Mc Donald, Pennsylvania
Current Conditions -  °F | °C
As of 8:51 AM on Saturday 25 Oct 2014 (Local Time) from KPIT Reporting Station
Overcast Overcast  
Wind Chill: 46°   Ceiling: 3800
Heat Index: 48°   Visibility: 10mi
Dew Point: 40°   Wind: 5mph
Humidity: 74%   Direction: 200°SSW
Pressure: 29.96"   Gusts: NA
Location:  40.3662°N, 80.2739°W
Report Text: KPIT 251251Z 20004KT 10SM BKN038 OVC250 09/04 A2996 RMK AO2 SLP154 T00890044
Loading
Personal Weather Stations






























Interactive Weather Map
Tropical Storm Tracking
New forecast layout! Learn more

10-Day Weather Forecast

Advertisements
Track Severe Weather on mobile